createdAt,value
2022-12-04T00:01:27.886Z,14.70
2022-12-04T00:03:59.294Z,17.30
2022-12-04T00:06:27.644Z,14.80
2022-12-04T00:08:56.199Z,15.70
2022-12-04T00:11:28.041Z,14.10
2022-12-04T00:14:01.486Z,14.00
2022-12-04T00:16:32.887Z,15.00
2022-12-04T00:19:04.871Z,14.90
2022-12-04T00:21:35.569Z,16.60
2022-12-04T00:24:03.638Z,14.40
2022-12-04T00:26:31.523Z,15.70
2022-12-04T00:28:59.795Z,15.00
2022-12-04T00:31:29.359Z,15.20
2022-12-04T00:34:00.381Z,15.00
2022-12-04T00:36:30.057Z,14.20
2022-12-04T00:39:00.589Z,14.20
2022-12-04T00:41:30.438Z,14.00
2022-12-04T00:43:59.949Z,15.40
2022-12-04T00:46:28.679Z,15.60
2022-12-04T00:48:56.807Z,14.60
2022-12-04T00:51:25.361Z,15.50
2022-12-04T00:53:54.094Z,15.70
2022-12-04T00:56:25.246Z,15.00
2022-12-04T00:58:57.617Z,16.70
2022-12-04T01:01:26.378Z,16.60
2022-12-04T01:03:55.637Z,17.10
2022-12-04T01:06:26.440Z,15.30
2022-12-04T01:08:56.428Z,14.60
2022-12-04T01:11:28.276Z,12.90
2022-12-04T01:13:57.601Z,12.90
2022-12-04T01:16:30.756Z,14.00
2022-12-04T01:18:59.150Z,12.60
2022-12-04T01:21:27.129Z,12.20
2022-12-04T01:23:55.064Z,13.10
2022-12-04T01:26:23.163Z,12.40
2022-12-04T01:28:50.964Z,11.40
2022-12-04T01:31:20.924Z,12.10
2022-12-04T01:33:49.698Z,11.30
2022-12-04T01:36:22.342Z,12.50
2022-12-04T01:38:54.334Z,11.50
2022-12-04T01:41:25.937Z,11.20
2022-12-04T01:44:25.861Z,11.40
2022-12-04T01:46:55.766Z,12.30
2022-12-04T01:49:34.098Z,13.40
2022-12-04T01:52:20.085Z,13.30
2022-12-04T01:54:54.381Z,11.80
2022-12-04T01:57:25.334Z,13.50
2022-12-04T01:59:59.601Z,13.40
2022-12-04T02:02:32.916Z,15.00
2022-12-04T02:05:02.462Z,15.40
2022-12-04T02:07:31.682Z,13.90
2022-12-04T02:10:03.874Z,13.50
2022-12-04T02:12:56.136Z,13.20
2022-12-04T02:15:42.293Z,13.60
2022-12-04T02:18:29.246Z,13.70
2022-12-04T02:21:06.599Z,13.40
2022-12-04T02:23:57.864Z,14.50
2022-12-04T02:26:41.157Z,13.70
2022-12-04T02:29:30.018Z,13.60
2022-12-04T02:32:21.318Z,12.50
2022-12-04T02:34:59.117Z,11.60
2022-12-04T02:37:34.426Z,12.10
2022-12-04T02:40:09.918Z,11.60
2022-12-04T02:42:52.833Z,12.60
2022-12-04T02:45:26.257Z,11.40
2022-12-04T02:47:55.955Z,12.90
2022-12-04T02:50:24.509Z,11.60
2022-12-04T02:52:59.906Z,11.90
2022-12-04T02:55:37.041Z,12.50
2022-12-04T02:58:11.254Z,12.40
2022-12-04T03:00:42.017Z,13.00
2022-12-04T03:03:18.548Z,14.70
2022-12-04T03:05:57.946Z,13.60
2022-12-04T03:08:33.186Z,13.40
2022-12-04T03:11:02.101Z,13.80
2022-12-04T03:13:40.006Z,13.50
2022-12-04T03:16:14.413Z,14.30
2022-12-04T03:18:48.702Z,14.80
2022-12-04T03:21:21.517Z,14.00
2022-12-04T03:23:55.103Z,14.90
2022-12-04T03:26:32.639Z,15.70
2022-12-04T03:29:12.674Z,15.00
2022-12-04T03:31:50.404Z,14.60
2022-12-04T03:34:28.077Z,15.10
2022-12-04T03:37:02.437Z,15.10
2022-12-04T03:39:38.221Z,15.10
2022-12-04T03:42:15.267Z,15.10
2022-12-04T03:44:49.462Z,14.60
2022-12-04T03:47:34.100Z,14.80
2022-12-04T03:50:13.399Z,12.70
2022-12-04T03:52:52.763Z,13.00
2022-12-04T03:55:29.749Z,11.20
2022-12-04T03:58:06.689Z,10.70
2022-12-04T04:00:39.530Z,9.50
2022-12-04T04:03:13.222Z,8.00
2022-12-04T04:05:47.397Z,8.70
2022-12-04T04:08:26.874Z,9.70
2022-12-04T04:11:13.867Z,9.30
2022-12-04T04:14:03.762Z,7.30
2022-12-04T04:16:53.880Z,9.20
2022-12-04T04:19:34.026Z,9.20
2022-12-04T04:22:24.277Z,9.80
2022-12-04T04:25:05.687Z,10.30
2022-12-04T04:27:35.456Z,9.90
2022-12-04T04:30:04.233Z,9.00
2022-12-04T04:32:41.114Z,9.40
2022-12-04T04:35:37.219Z,9.60
2022-12-04T04:38:20.124Z,9.20
2022-12-04T04:41:00.343Z,8.40
2022-12-04T04:43:53.218Z,9.30
2022-12-04T04:46:29.010Z,8.30
2022-12-04T04:49:00.885Z,8.60
2022-12-04T04:51:31.106Z,9.10
2022-12-04T04:54:04.518Z,8.50
2022-12-04T04:56:32.337Z,8.20
2022-12-04T04:59:00.032Z,8.50
2022-12-04T05:01:28.810Z,8.40
2022-12-04T05:03:56.579Z,9.50
2022-12-04T05:06:24.341Z,9.00
2022-12-04T05:08:52.183Z,8.30
2022-12-04T05:11:19.937Z,7.90
2022-12-04T05:13:47.740Z,7.90
2022-12-04T05:16:16.680Z,7.30
2022-12-04T05:19:05.049Z,7.50
2022-12-04T05:21:34.157Z,7.60
2022-12-04T05:24:02.175Z,6.80
2022-12-04T05:26:30.043Z,7.30
2022-12-04T05:28:57.764Z,7.50
2022-12-04T05:31:25.692Z,6.90
2022-12-04T05:33:53.490Z,6.90
2022-12-04T05:36:21.513Z,7.00
2022-12-04T05:38:49.267Z,7.20
2022-12-04T05:41:17.014Z,7.10
2022-12-04T05:43:44.885Z,6.90
2022-12-04T05:46:12.731Z,7.40
2022-12-04T05:48:40.521Z,6.80
2022-12-04T05:51:10.642Z,7.40
2022-12-04T05:53:38.964Z,8.40
2022-12-04T05:56:07.693Z,8.30
2022-12-04T05:58:37.144Z,7.80
2022-12-04T06:01:11.623Z,8.60
2022-12-04T06:03:39.579Z,8.40
2022-12-04T06:06:24.795Z,9.10
2022-12-04T06:08:56.009Z,7.90
2022-12-04T06:11:27.201Z,8.80
2022-12-04T06:13:56.632Z,9.30
2022-12-04T06:16:29.744Z,9.00
2022-12-04T06:19:00.865Z,8.20
2022-12-04T06:21:32.181Z,8.00
2022-12-04T06:23:59.975Z,7.80
2022-12-04T06:26:28.299Z,7.10
2022-12-04T06:28:58.516Z,6.30
2022-12-04T06:31:28.983Z,6.50
2022-12-04T06:33:57.898Z,5.90
2022-12-04T06:36:26.307Z,6.00
2022-12-04T06:38:56.129Z,6.90
2022-12-04T06:41:26.227Z,7.60
2022-12-04T06:43:54.214Z,7.30
2022-12-04T06:46:25.242Z,7.60
2022-12-04T06:48:55.695Z,8.10
2022-12-04T06:51:26.466Z,8.90
2022-12-04T06:53:54.691Z,8.10
2022-12-04T06:56:26.028Z,8.70
2022-12-04T06:58:56.180Z,8.50
2022-12-04T07:01:27.430Z,8.40
2022-12-04T07:03:56.981Z,8.80
2022-12-04T07:06:29.569Z,7.70
2022-12-04T07:09:03.742Z,8.00
2022-12-04T07:11:32.742Z,7.30
2022-12-04T07:14:00.447Z,6.30
2022-12-04T07:16:35.333Z,6.70
2022-12-04T07:19:06.670Z,5.20
2022-12-04T07:21:34.848Z,4.30
2022-12-04T07:24:02.733Z,4.90
2022-12-04T07:26:30.955Z,5.30
2022-12-04T07:28:59.940Z,5.10
2022-12-04T07:31:29.480Z,5.10
2022-12-04T07:33:58.291Z,5.50
2022-12-04T07:36:26.988Z,5.50
2022-12-04T07:38:56.241Z,5.40
2022-12-04T07:41:24.583Z,5.40
2022-12-04T07:43:52.352Z,5.00
2022-12-04T07:46:24.079Z,5.40
2022-12-04T07:48:52.175Z,6.00
2022-12-04T07:51:22.954Z,5.80
2022-12-04T07:53:53.414Z,6.10
2022-12-04T07:56:21.822Z,5.80
2022-12-04T07:58:49.563Z,5.70
2022-12-04T08:01:21.711Z,7.10
2022-12-04T08:03:55.060Z,6.40
2022-12-04T08:06:24.952Z,6.60
2022-12-04T08:08:53.562Z,6.80
2022-12-04T08:11:23.797Z,7.30
2022-12-04T08:14:01.452Z,6.50
2022-12-04T08:16:31.232Z,6.20
2022-12-04T08:19:00.032Z,7.00
2022-12-04T08:21:30.464Z,6.50
2022-12-04T08:23:59.946Z,6.60
2022-12-04T08:26:30.283Z,6.70
2022-12-04T08:28:58.685Z,6.20
2022-12-04T08:31:29.536Z,5.70
2022-12-04T08:33:59.016Z,6.60
2022-12-04T08:36:27.288Z,5.60
2022-12-04T08:38:55.619Z,5.90
2022-12-04T08:41:26.045Z,6.40
2022-12-04T08:43:55.591Z,6.80
2022-12-04T08:46:25.941Z,7.00
2022-12-04T08:48:54.697Z,6.90
2022-12-04T08:51:25.199Z,6.90
2022-12-04T08:53:56.516Z,6.70
2022-12-04T08:56:25.795Z,6.50
2022-12-04T08:58:56.230Z,6.80
2022-12-04T09:01:26.003Z,6.70
2022-12-04T09:03:54.338Z,6.90
2022-12-04T09:06:22.993Z,7.30
2022-12-04T09:08:55.159Z,7.10
2022-12-04T09:11:26.003Z,7.30
2022-12-04T09:13:53.897Z,7.70
2022-12-04T09:16:24.115Z,7.80
2022-12-04T09:18:52.945Z,7.40
2022-12-04T09:21:22.626Z,7.30
2022-12-04T09:23:51.421Z,7.40
2022-12-04T09:26:24.906Z,8.00
2022-12-04T09:28:53.669Z,7.10
2022-12-04T09:31:23.673Z,8.30
2022-12-04T09:33:52.843Z,6.80
2022-12-04T09:36:24.218Z,6.90
2022-12-04T09:38:54.516Z,7.00
2022-12-04T09:41:40.160Z,6.60
2022-12-04T09:44:29.412Z,6.40
2022-12-04T09:47:02.887Z,6.80
2022-12-04T09:49:42.048Z,6.50
2022-12-04T09:52:26.657Z,6.40
2022-12-04T09:54:55.799Z,6.80
2022-12-04T09:57:35.143Z,6.70
2022-12-04T10:00:06.131Z,7.20
2022-12-04T10:02:41.632Z,7.40
2022-12-04T10:05:48.093Z,8.00
2022-12-04T10:08:38.405Z,9.70
2022-12-04T10:11:17.017Z,9.50
2022-12-04T10:14:03.372Z,9.40
2022-12-04T10:16:58.199Z,9.20
2022-12-04T10:19:42.091Z,8.80
2022-12-04T10:22:22.851Z,7.70
2022-12-04T10:24:55.506Z,7.00
2022-12-04T10:27:35.904Z,7.00
2022-12-04T10:30:21.878Z,8.20
2022-12-04T10:32:59.434Z,7.90
2022-12-04T10:35:30.682Z,6.70
2022-12-04T10:38:18.115Z,7.70
2022-12-04T10:40:51.102Z,7.40
2022-12-04T10:43:46.978Z,8.10
2022-12-04T10:46:30.223Z,9.10
2022-12-04T10:49:03.176Z,8.40
2022-12-04T10:51:39.797Z,8.50
2022-12-04T10:56:54.539Z,8.70
2022-12-04T10:59:23.377Z,7.50
2022-12-04T11:02:04.647Z,7.70
2022-12-04T11:04:35.520Z,8.80
2022-12-04T11:07:15.920Z,8.80
2022-12-04T11:09:43.560Z,7.90
2022-12-04T11:12:21.896Z,7.70
2022-12-04T11:15:01.022Z,7.90
2022-12-04T11:17:32.085Z,7.80
2022-12-04T11:20:02.254Z,7.30
2022-12-04T11:22:31.215Z,8.10
2022-12-04T11:25:01.883Z,7.30
2022-12-04T11:27:33.545Z,8.00
2022-12-04T11:30:07.732Z,6.80
2022-12-04T11:32:36.469Z,6.20
2022-12-04T11:35:17.363Z,6.70
2022-12-04T11:37:55.804Z,8.00
2022-12-04T11:40:25.626Z,6.70
2022-12-04T11:43:14.796Z,7.10
2022-12-04T11:45:54.426Z,6.70
2022-12-04T11:48:22.721Z,7.50
2022-12-04T11:51:10.870Z,8.20
2022-12-04T11:53:59.547Z,7.90
2022-12-04T11:56:35.666Z,6.80
2022-12-04T11:59:22.121Z,7.30
2022-12-04T12:02:23.488Z,6.70
2022-12-04T12:05:14.159Z,6.40
2022-12-04T12:08:02.112Z,6.60
2022-12-04T12:10:45.730Z,6.40
2022-12-04T12:13:35.780Z,6.70
2022-12-04T12:16:16.321Z,7.00
2022-12-04T12:19:04.871Z,6.70
2022-12-04T12:21:49.863Z,7.10
2022-12-04T12:24:25.643Z,6.60
2022-12-04T12:27:14.035Z,6.70
2022-12-04T12:30:06.596Z,6.30
2022-12-04T12:33:06.246Z,7.10
2022-12-04T12:35:53.393Z,5.90
2022-12-04T12:38:26.760Z,6.80
2022-12-04T12:41:01.766Z,5.80
2022-12-04T12:43:39.832Z,6.80
2022-12-04T12:46:16.276Z,5.90
2022-12-04T12:48:58.749Z,6.10
2022-12-04T12:51:40.667Z,7.00
2022-12-04T12:54:23.239Z,6.90
2022-12-04T12:56:55.867Z,6.50
2022-12-04T12:59:27.260Z,6.60
2022-12-04T13:02:12.014Z,6.60
2022-12-04T13:04:43.692Z,6.00
2022-12-04T13:07:27.893Z,6.50
2022-12-04T13:10:07.725Z,6.70
2022-12-04T13:12:45.384Z,6.60
2022-12-04T13:15:16.029Z,5.70
2022-12-04T13:17:45.311Z,6.30
2022-12-04T13:20:21.114Z,6.60
2022-12-04T13:23:12.831Z,5.90
2022-12-04T13:25:59.601Z,6.80
2022-12-04T13:28:59.837Z,6.80
2022-12-04T13:31:45.383Z,6.40
2022-12-04T13:34:33.882Z,6.00
2022-12-04T13:37:18.115Z,6.30
2022-12-04T13:40:20.441Z,7.60
2022-12-04T13:42:48.333Z,6.90
2022-12-04T13:45:33.995Z,6.50
2022-12-04T13:48:03.487Z,6.60
2022-12-04T13:50:34.579Z,6.90
2022-12-04T13:53:02.872Z,5.70
2022-12-04T13:55:35.644Z,7.00
2022-12-04T13:58:28.832Z,6.70
2022-12-04T14:01:03.521Z,6.80
2022-12-04T14:03:39.463Z,6.40
2022-12-04T14:06:22.916Z,6.40
2022-12-04T14:08:58.364Z,6.80
2022-12-04T14:11:28.003Z,6.60
2022-12-04T14:14:03.464Z,6.50
2022-12-04T14:16:41.086Z,6.10
2022-12-04T14:19:27.680Z,6.80
2022-12-04T14:21:55.861Z,7.90
2022-12-04T14:24:39.399Z,7.30
2022-12-04T14:27:34.802Z,6.90
2022-12-04T14:30:03.269Z,7.60
2022-12-04T14:32:35.141Z,7.60
2022-12-04T14:35:03.654Z,7.90
2022-12-04T14:37:36.204Z,8.10
2022-12-04T14:40:07.426Z,8.50
2022-12-04T14:42:40.100Z,9.50
2022-12-04T14:45:29.193Z,8.90
2022-12-04T14:48:23.105Z,8.10
2022-12-04T14:51:04.975Z,8.70
2022-12-04T14:53:49.126Z,9.00
2022-12-04T14:56:40.515Z,8.50
2022-12-04T14:59:18.111Z,8.30
2022-12-04T15:01:48.290Z,8.60
2022-12-04T15:04:25.836Z,7.80
2022-12-04T15:06:59.889Z,8.10
2022-12-04T15:09:45.952Z,7.30
2022-12-04T15:12:34.122Z,6.60
2022-12-04T15:15:25.691Z,6.30
2022-12-04T15:18:14.897Z,6.20
2022-12-04T15:20:58.476Z,7.20
2022-12-04T15:23:36.320Z,5.80
2022-12-04T15:26:09.892Z,6.30
2022-12-04T15:28:46.704Z,5.90
2022-12-04T15:31:20.531Z,7.20
2022-12-04T15:33:51.859Z,7.00
2022-12-04T15:36:44.474Z,8.00
2022-12-04T15:39:19.045Z,7.60
2022-12-04T15:41:47.416Z,8.20
2022-12-04T15:44:30.066Z,8.70
2022-12-04T15:47:00.961Z,8.00
2022-12-04T15:49:30.969Z,9.40
2022-12-04T15:52:17.779Z,9.60
2022-12-04T15:55:01.053Z,8.60
2022-12-04T15:57:33.732Z,7.90
2022-12-04T16:00:05.145Z,6.70
2022-12-04T16:02:36.253Z,6.90
2022-12-04T16:05:27.689Z,7.00
2022-12-04T16:08:00.058Z,7.50
2022-12-04T16:10:32.073Z,8.40
2022-12-04T16:13:02.639Z,8.40
2022-12-04T16:15:40.580Z,7.50
2022-12-04T16:18:13.286Z,5.80
2022-12-04T16:20:41.424Z,5.60
2022-12-04T16:23:09.507Z,6.00
2022-12-04T16:25:37.308Z,4.80
2022-12-04T16:28:06.222Z,5.00
2022-12-04T16:30:35.825Z,6.20
2022-12-04T16:33:03.763Z,5.40
2022-12-04T16:35:31.573Z,5.10
2022-12-04T16:37:59.264Z,5.20
2022-12-04T16:40:27.053Z,4.80
2022-12-04T16:42:54.818Z,5.60
2022-12-04T16:45:27.641Z,4.90
2022-12-04T16:47:56.153Z,4.20
2022-12-04T16:50:24.994Z,4.20
2022-12-04T16:52:52.975Z,3.90
2022-12-04T16:55:28.121Z,4.00
2022-12-04T16:57:55.832Z,4.80
2022-12-04T17:00:24.167Z,5.00
2022-12-04T17:02:51.962Z,4.20
2022-12-04T17:05:25.773Z,4.80
2022-12-04T17:07:53.868Z,4.00
2022-12-04T17:10:24.176Z,3.80
2022-12-04T17:12:53.595Z,4.40
2022-12-04T17:15:22.234Z,4.00
2022-12-04T17:17:50.579Z,3.90
2022-12-04T17:20:20.891Z,3.60
2022-12-04T17:22:49.076Z,3.00
2022-12-04T17:25:17.736Z,3.30
2022-12-04T17:27:45.950Z,3.00
2022-12-04T17:30:14.496Z,3.10
2022-12-04T17:32:42.475Z,2.20
2022-12-04T17:35:12.283Z,2.70
2022-12-04T17:37:40.084Z,2.90
2022-12-04T17:40:10.465Z,2.70
2022-12-04T17:42:38.412Z,3.30
2022-12-04T17:45:07.045Z,3.50
2022-12-04T17:47:35.672Z,3.40
2022-12-04T17:50:06.141Z,3.70
2022-12-04T17:52:34.169Z,3.60
2022-12-04T17:55:01.800Z,4.30
2022-12-04T17:57:29.625Z,4.40
2022-12-04T17:59:57.447Z,4.30
2022-12-04T18:02:25.263Z,4.80
2022-12-04T18:04:56.493Z,5.50
2022-12-04T18:07:24.445Z,5.00
2022-12-04T18:09:52.131Z,4.80
2022-12-04T18:12:19.882Z,5.10
2022-12-04T18:14:49.906Z,10.30
2022-12-04T18:17:20.782Z,14.80
2022-12-04T18:19:48.567Z,15.10
2022-12-04T18:22:16.342Z,16.10
2022-12-04T18:24:44.131Z,16.70
2022-12-04T18:27:11.844Z,13.40
2022-12-04T18:29:39.814Z,12.90
2022-12-04T18:32:07.609Z,12.70
2022-12-04T18:34:35.375Z,11.50
2022-12-04T18:37:03.689Z,12.30
2022-12-04T18:39:31.525Z,12.40
2022-12-04T18:41:59.241Z,13.80
2022-12-04T18:44:27.130Z,12.30
2022-12-04T18:46:54.910Z,11.10
2022-12-04T18:49:22.753Z,11.50
2022-12-04T18:51:51.631Z,10.90
2022-12-04T18:54:22.255Z,10.70
2022-12-04T18:56:51.274Z,11.20
2022-12-04T18:59:22.474Z,11.00
2022-12-04T19:01:51.079Z,11.60
2022-12-04T19:04:20.936Z,10.50
2022-12-04T19:06:57.544Z,11.00
2022-12-04T19:09:54.337Z,11.20
2022-12-04T19:12:16.712Z,10.60
2022-12-04T19:14:45.023Z,9.80
2022-12-04T19:17:13.139Z,11.10
2022-12-04T19:19:40.943Z,10.90
2022-12-04T19:22:08.696Z,10.40
2022-12-04T19:24:36.469Z,10.90
2022-12-04T19:27:10.951Z,11.40
2022-12-04T19:29:40.042Z,12.30
2022-12-04T19:32:10.538Z,11.10
2022-12-04T19:34:38.441Z,12.00
2022-12-04T19:37:06.826Z,14.40
2022-12-04T19:39:34.496Z,14.20
2022-12-04T19:42:02.208Z,14.40
2022-12-04T19:47:18.629Z,15.90
2022-12-04T19:49:46.903Z,18.20
2022-12-04T19:52:15.203Z,19.80
2022-12-04T19:54:43.088Z,19.10
2022-12-04T19:57:10.802Z,19.40
2022-12-04T19:59:43.119Z,19.20
2022-12-04T20:02:14.162Z,18.10
2022-12-04T20:04:43.080Z,17.70
2022-12-04T20:07:11.579Z,17.70
2022-12-04T20:09:39.355Z,17.00
2022-12-04T20:12:07.388Z,20.60
2022-12-04T20:14:35.046Z,24.50
2022-12-04T20:17:04.009Z,22.00
2022-12-04T20:19:31.984Z,20.60
2022-12-04T20:22:00.081Z,20.00
2022-12-04T20:24:27.914Z,20.20
2022-12-04T20:26:55.692Z,23.80
2022-12-04T20:29:23.408Z,21.10
2022-12-04T20:31:51.100Z,21.50
2022-12-04T20:34:19.748Z,20.80
2022-12-04T20:36:49.252Z,20.70
2022-12-04T20:39:18.636Z,19.50
2022-12-04T20:41:46.368Z,19.70
2022-12-04T20:44:16.956Z,19.30
2022-12-04T20:46:45.399Z,18.20
2022-12-04T20:49:21.293Z,20.00
2022-12-04T20:51:51.731Z,19.60
2022-12-04T20:54:21.494Z,17.40
2022-12-04T20:56:52.016Z,17.80
2022-12-04T20:59:24.575Z,20.20
2022-12-04T21:01:53.057Z,19.60
2022-12-04T21:04:21.418Z,19.10
2022-12-04T21:06:52.028Z,19.30
2022-12-04T21:09:22.835Z,18.30
2022-12-04T21:11:53.072Z,17.90
2022-12-04T21:14:40.793Z,17.30
2022-12-04T21:17:13.066Z,21.60
2022-12-04T21:19:40.733Z,23.70
2022-12-04T21:22:08.507Z,20.60
2022-12-04T21:24:38.676Z,20.60
2022-12-04T21:27:09.072Z,19.30
2022-12-04T21:29:38.419Z,19.20
2022-12-04T21:32:07.203Z,19.40
2022-12-04T21:34:35.454Z,17.70
2022-12-04T21:37:03.115Z,18.20
2022-12-04T21:39:30.836Z,17.30
2022-12-04T21:42:12.158Z,16.10
2022-12-04T21:44:43.093Z,16.40
2022-12-04T21:47:11.168Z,16.70
2022-12-04T21:49:41.815Z,18.60
2022-12-04T21:52:09.733Z,17.80
2022-12-04T21:54:37.423Z,18.30
2022-12-04T21:57:05.214Z,18.10
2022-12-04T21:59:33.601Z,16.30
2022-12-04T22:02:02.217Z,17.20
2022-12-04T22:04:30.198Z,17.80
2022-12-04T22:06:58.123Z,18.10
2022-12-04T22:09:26.130Z,17.70
2022-12-04T22:11:53.994Z,17.10
2022-12-04T22:14:21.820Z,18.60
2022-12-04T22:16:51.984Z,18.30
2022-12-04T22:19:20.167Z,18.30
2022-12-04T22:21:48.443Z,19.50
2022-12-04T22:24:16.218Z,19.20
2022-12-04T22:26:44.025Z,19.30
2022-12-04T22:29:42.057Z,20.60
2022-12-04T22:31:59.406Z,22.00
2022-12-04T22:34:27.118Z,22.50
2022-12-04T22:36:54.848Z,22.70
2022-12-04T22:39:22.761Z,22.40
2022-12-04T22:41:50.463Z,21.60
2022-12-04T22:44:18.667Z,22.20
2022-12-04T22:46:46.759Z,21.80
2022-12-04T22:49:14.948Z,20.60
2022-12-04T22:51:42.553Z,19.00
2022-12-04T22:54:14.041Z,18.80
2022-12-04T22:56:44.171Z,18.10
2022-12-04T22:59:11.890Z,18.70
2022-12-04T23:01:39.624Z,17.10
2022-12-04T23:04:07.355Z,15.70
2022-12-04T23:06:35.741Z,13.50
2022-12-04T23:09:07.684Z,11.90
2022-12-04T23:11:36.529Z,12.00
2022-12-04T23:14:06.456Z,12.20
2022-12-04T23:16:36.014Z,11.90
2022-12-04T23:19:05.489Z,12.60
2022-12-04T23:21:34.007Z,12.50
2022-12-04T23:24:01.820Z,11.40
2022-12-04T23:26:32.672Z,12.30
2022-12-04T23:29:01.669Z,12.10
2022-12-04T23:31:30.734Z,13.70
2022-12-04T23:33:59.916Z,14.80
2022-12-04T23:36:27.830Z,17.90
2022-12-04T23:38:55.864Z,16.90
2022-12-04T23:41:26.975Z,18.80
2022-12-04T23:43:55.254Z,18.90
2022-12-04T23:46:30.244Z,19.40
2022-12-04T23:49:00.066Z,19.30
2022-12-04T23:51:28.122Z,18.40
2022-12-04T23:53:55.967Z,17.50
2022-12-04T23:56:26.296Z,17.80
2022-12-04T23:58:56.793Z,16.60
